Time;durP1;ratioP1;P1;durP2;ratioP2;P2;SDS_P1;SDS_P2;PMS_P1;PMS_P2;Temp;Humidity;BMP_temperature;BMP_pressure;BME280_temperature;BME280_humidity;BME280_pressure;Samples;Min_cycle;Max_cycle;Signal;HPM_P1;HPM_P2
2023/09/28 01:14:23;;;;;;;8.05;3.03;;;17.50;99.90;;;;;;5041434;23;20203;-63
2023/09/28 01:16:48;;;;;;;3.22;2.95;;;17.40;99.90;;;;;;5046612;28;20048;-63
2023/09/28 01:19:14;;;;;;;3.50;3.20;;;17.40;99.90;;;;;;5048618;28;20041;-63
2023/09/28 01:21:40;;;;;;;3.42;3.20;;;17.40;99.90;;;;;;4997859;28;20228;-63
2023/09/28 01:24:06;;;;;;;3.47;3.17;;;17.40;99.90;;;;;;5030071;28;20041;-63
2023/09/28 01:26:34;;;;;;;4.88;2.97;;;17.40;99.90;;;;;;5047628;28;20436;-63
2023/09/28 01:29:00;;;;;;;3.55;3.10;;;17.40;99.90;;;;;;5020173;28;20095;-63
2023/09/28 01:31:27;;;;;;;4.15;2.88;;;17.40;99.90;;;;;;5025593;28;20083;-63
2023/09/28 01:33:53;;;;;;;3.40;3.10;;;17.40;99.90;;;;;;5030860;28;20063;-63
2023/09/28 01:36:19;;;;;;;3.47;2.75;;;17.40;99.90;;;;;;5029115;28;20049;-63
2023/09/28 01:39:00;;;;;;;4.72;3.30;;;17.40;99.90;;;;;;5047962;28;20407;-63
2023/09/28 01:41:26;;;;;;;5.60;3.05;;;17.40;99.90;;;;;;5048223;28;20045;-63
2023/09/28 01:43:52;;;;;;;2.95;2.60;;;17.40;99.90;;;;;;5047739;28;20056;-63
2023/09/28 01:46:18;;;;;;;3.28;3.00;;;17.40;99.90;;;;;;5049312;28;20556;-63
2023/09/28 01:48:43;;;;;;;4.07;3.05;;;17.40;99.90;;;;;;5047424;28;20103;-63
2023/09/28 01:51:09;;;;;;;6.30;3.28;;;17.40;99.90;;;;;;5048576;28;20350;-63
2023/09/28 01:53:38;;;;;;;5.13;3.22;;;17.40;99.90;;;;;;5047698;28;20542;-64
2023/09/28 01:56:04;;;;;;;3.63;3.00;;;17.40;99.90;;;;;;5047570;28;20171;-64
2023/09/28 01:58:31;;;;;;;3.50;2.90;;;17.40;99.90;;;;;;5030521;28;20053;-63
2023/09/28 02:00:57;;;;;;;7.07;3.40;;;17.40;99.90;;;;;;5047490;28;20517;-63
2023/09/28 02:03:23;;;;;;;3.00;2.72;;;17.40;99.90;;;;;;5047137;28;20095;-63
2023/09/28 02:05:49;;;;;;;3.38;3.10;;;17.40;99.90;;;;;;5046707;28;20040;-63
2023/09/28 02:08:15;;;;;;;10.93;3.20;;;17.40;99.90;;;;;;5048460;28;20406;-63
2023/09/28 02:10:42;;;;;;;3.10;2.90;;;17.40;99.90;;;;;;5011900;28;20045;-63
2023/09/28 02:13:07;;;;;;;4.53;3.30;;;17.40;99.90;;;;;;5023448;28;20068;-63
2023/09/28 02:15:33;;;;;;;3.08;2.78;;;17.40;99.90;;;;;;5045930;28;20138;-63
2023/09/28 02:17:59;;;;;;;5.72;2.80;;;17.30;99.90;;;;;;5027571;28;20103;-63
2023/09/28 02:20:25;;;;;;;4.82;2.88;;;17.30;99.90;;;;;;5028703;28;20487;-64
2023/09/28 02:22:54;;;;;;;13.73;3.55;;;17.30;99.90;;;;;;5031037;28;20056;-64
2023/09/28 02:25:22;;;;;;;2.75;2.53;;;17.30;99.90;;;;;;5048471;28;20052;-63
2023/09/28 02:27:49;;;;;;;6.13;3.38;;;17.30;99.90;;;;;;5047069;28;20123;-63
2023/09/28 02:30:19;;;;;;;2.72;2.50;;;17.30;99.90;;;;;;5037790;28;20057;-64
2023/09/28 02:32:45;;;;;;;3.78;2.90;;;17.30;99.90;;;;;;5028863;28;20495;-64
2023/09/28 02:35:14;;;;;;;4.80;2.92;;;17.20;99.90;;;;;;5038499;28;20048;-64
2023/09/28 02:37:41;;;;;;;4.60;3.17;;;17.20;99.90;;;;;;5028113;28;20057;-63
2023/09/28 02:40:08;;;;;;;2.50;2.40;;;17.20;99.90;;;;;;5026609;28;20519;-64
2023/09/28 02:42:34;;;;;;;4.57;2.75;;;17.20;99.90;;;;;;5026715;28;20038;-63
2023/09/28 02:45:00;;;;;;;2.80;2.60;;;17.20;99.90;;;;;;5037405;28;20404;-64
2023/09/28 02:47:27;;;;;;;3.72;2.60;;;17.20;99.90;;;;;;5028087;28;20460;-64
2023/09/28 02:49:54;;;;;;;4.97;2.95;;;17.10;99.90;;;;;;5027233;28;20128;-63
2023/09/28 02:52:20;;;;;;;4.63;3.03;;;17.10;99.90;;;;;;5018760;28;20041;-63
2023/09/28 02:54:46;;;;;;;4.07;2.63;;;17.10;99.90;;;;;;5040031;28;20041;-63
2023/09/28 02:57:13;;;;;;;2.50;2.30;;;17.10;99.90;;;;;;5016510;28;20492;-63
2023/09/28 02:59:38;;;;;;;2.80;2.55;;;17.00;99.90;;;;;;5029692;28;20094;-63
2023/09/28 03:02:05;;;;;;;2.97;2.60;;;17.00;99.90;;;;;;5014698;28;20054;-64
2023/09/28 03:04:33;;;;;;;4.50;2.70;;;17.00;99.90;;;;;;5027967;28;20049;-63
2023/09/28 03:07:00;;;;;;;3.60;2.92;;;17.00;99.90;;;;;;5044023;28;20388;-63
2023/09/28 03:09:26;;;;;;;3.20;2.58;;;16.90;99.90;;;;;;5036439;28;20121;-64
2023/09/28 03:11:53;;;;;;;3.97;2.47;;;16.90;99.90;;;;;;5031166;28;20435;-63
2023/09/28 03:14:20;;;;;;;4.95;2.15;;;16.90;99.90;;;;;;5034174;28;20045;-63
2023/09/28 03:16:45;;;;;;;2.88;2.58;;;16.90;99.90;;;;;;5030288;28;20088;-63
2023/09/28 03:19:11;;;;;;;2.75;2.55;;;17.00;99.90;;;;;;5039826;28;20551;-63
2023/09/28 03:21:39;;;;;;;2.75;2.53;;;17.00;99.90;;;;;;5027685;28;20514;-63
2023/09/28 03:24:05;;;;;;;3.00;2.20;;;17.00;99.90;;;;;;5027912;28;20060;-63
2023/09/28 03:26:31;;;;;;;3.42;2.53;;;17.00;99.90;;;;;;5046991;28;20041;-63
2023/09/28 03:28:57;;;;;;;2.90;2.60;;;17.10;99.90;;;;;;5027722;28;20368;-63
2023/09/28 03:31:27;;;;;;;7.43;2.88;;;17.10;99.90;;;;;;5041302;28;20045;-63
2023/09/28 03:33:58;;;;;;;3.53;2.83;;;17.00;99.90;;;;;;5012897;28;20052;-63
2023/09/28 03:36:24;;;;;;;2.53;2.33;;;17.00;99.90;;;;;;5045428;28;20045;-64
2023/09/28 03:38:50;;;;;;;2.35;2.15;;;17.00;99.90;;;;;;5036698;28;20045;-64
2023/09/28 03:41:17;;;;;;;2.33;2.20;;;17.00;99.90;;;;;;5030754;28;20496;-63
2023/09/28 03:43:44;;;;;;;3.38;2.60;;;17.00;99.90;;;;;;5026614;28;20038;-64
2023/09/28 03:46:11;;;;;;;2.60;2.40;;;17.00;99.90;;;;;;5028138;28;20432;-63
2023/09/28 03:48:37;;;;;;;3.00;2.80;;;17.00;99.90;;;;;;5026027;28;20065;-63
2023/09/28 03:51:03;;;;;;;5.88;2.70;;;17.00;99.90;;;;;;5028388;28;20381;-63
2023/09/28 03:53:31;;;;;;;4.32;2.78;;;17.00;99.90;;;;;;5025572;28;20037;-63
2023/09/28 03:55:58;;;;;;;4.95;2.78;;;17.00;99.90;;;;;;5026129;28;20503;-63
2023/09/28 03:58:23;;;;;;;2.88;2.60;;;17.00;99.90;;;;;;5024371;28;20049;-63
2023/09/28 04:00:49;;;;;;;3.58;2.50;;;17.10;99.90;;;;;;5018199;28;20036;-63
2023/09/28 04:03:15;;;;;;;2.90;2.35;;;17.10;99.90;;;;;;5031183;28;20518;-63
2023/09/28 04:05:40;;;;;;;4.28;2.40;;;17.00;99.90;;;;;;5024903;28;20025;-63
2023/09/28 04:08:07;;;;;;;6.53;3.08;;;17.00;99.90;;;;;;5026834;28;20045;-63
2023/09/28 04:10:33;;;;;;;5.90;2.97;;;17.00;99.90;;;;;;5025794;28;20037;-63
2023/09/28 04:13:01;;;;;;;4.55;2.88;;;17.00;99.90;;;;;;5016796;28;20054;-64
2023/09/28 04:15:27;;;;;;;4.45;2.65;;;17.00;99.90;;;;;;5031289;28;20045;-63
2023/09/28 04:17:53;;;;;;;3.20;2.70;;;17.00;99.90;;;;;;5018807;28;20048;-63
2023/09/28 04:20:19;;;;;;;5.28;3.20;;;17.00;99.90;;;;;;5027752;28;20080;-63
2023/09/28 04:22:45;;;;;;;2.92;2.53;;;17.00;99.90;;;;;;5041211;28;20036;-64
2023/09/28 04:25:11;;;;;;;2.78;2.40;;;17.00;99.90;;;;;;5015764;28;20075;-63
2023/09/28 04:27:37;;;;;;;4.40;2.97;;;17.00;99.90;;;;;;5033284;28;20049;-63
2023/09/28 04:30:06;;;;;;;4.88;3.00;;;17.00;99.90;;;;;;5032683;28;20052;-63
2023/09/28 04:32:32;;;;;;;5.68;2.88;;;16.90;99.90;;;;;;5030372;28;20460;-63
2023/09/28 04:34:58;;;;;;;3.97;2.45;;;16.90;99.90;;;;;;5005967;28;20059;-63
2023/09/28 04:37:26;;;;;;;5.70;3.00;;;16.90;99.90;;;;;;5040496;28;20053;-63
2023/09/28 04:39:53;;;;;;;6.22;3.20;;;16.90;99.90;;;;;;5037548;28;20063;-63
2023/09/28 04:42:22;;;;;;;5.85;3.30;;;16.90;99.90;;;;;;5022939;28;20045;-63
2023/09/28 04:44:49;;;;;;;3.08;2.78;;;16.90;99.90;;;;;;5039770;28;20491;-63
2023/09/28 04:47:14;;;;;;;8.30;2.95;;;16.90;99.90;;;;;;5000335;28;20049;-63
2023/09/28 04:49:44;;;;;;;3.70;2.65;;;16.80;99.90;;;;;;5034446;28;20049;-64
2023/09/28 04:52:10;;;;;;;3.92;3.10;;;16.80;99.90;;;;;;5035712;28;20081;-63
2023/09/28 04:54:37;;;;;;;8.48;2.90;;;16.90;99.90;;;;;;5034500;28;20084;-63
2023/09/28 04:57:03;;;;;;;5.72;2.88;;;16.80;99.90;;;;;;5029086;28;20053;-63
2023/09/28 04:59:29;;;;;;;3.35;3.00;;;16.80;99.90;;;;;;5033959;28;20041;-63
2023/09/28 05:01:57;;;;;;;3.22;2.65;;;16.70;99.90;;;;;;5036978;28;20124;-63
2023/09/28 05:04:23;;;;;;;3.67;3.33;;;16.70;99.90;;;;;;5033394;28;20053;-63
2023/09/28 05:06:49;;;;;;;4.65;2.72;;;16.60;99.90;;;;;;5045302;28;20037;-63
2023/09/28 05:09:15;;;;;;;5.28;3.53;;;16.60;99.90;;;;;;5039211;28;20055;-63
2023/09/28 05:11:40;;;;;;;4.82;3.20;;;16.60;99.90;;;;;;5020251;28;20061;-63
2023/09/28 05:14:06;;;;;;;8.15;2.92;;;16.60;99.90;;;;;;5014021;28;20049;-63
2023/09/28 05:16:32;;;;;;;8.63;3.50;;;16.50;99.90;;;;;;5039072;28;20084;-63
2023/09/28 05:18:58;;;;;;;6.05;3.00;;;16.50;99.90;;;;;;5036906;28;20071;-63
2023/09/28 05:21:24;;;;;;;4.60;3.15;;;16.40;99.90;;;;;;5033611;28;20045;-63
2023/09/28 05:23:50;;;;;;;5.20;3.08;;;16.40;99.90;;;;;;5031896;28;20052;-63
2023/09/28 05:26:16;;;;;;;6.93;3.00;;;16.40;99.90;;;;;;5034969;28;20041;-63
2023/09/28 05:28:42;;;;;;;3.67;3.03;;;16.40;99.90;;;;;;5047811;28;20482;-63
2023/09/28 05:31:08;;;;;;;6.70;2.95;;;16.30;99.90;;;;;;5024470;28;20052;-63
2023/09/28 05:33:34;;;;;;;4.82;3.05;;;16.30;99.90;;;;;;5029597;28;20041;-63
2023/09/28 05:36:00;;;;;;;4.22;2.90;;;16.30;99.90;;;;;;5039807;28;20364;-63
2023/09/28 05:38:26;;;;;;;8.18;3.00;;;16.30;99.90;;;;;;5040054;28;20088;-63
2023/09/28 05:40:54;;;;;;;6.38;3.20;;;16.20;99.90;;;;;;5028472;28;20467;-63
2023/09/28 05:43:20;;;;;;;5.43;3.30;;;16.20;99.90;;;;;;5045758;28;20135;-63
2023/09/28 05:45:46;;;;;;;4.00;3.30;;;16.10;99.90;;;;;;5047974;28;20127;-63
2023/09/28 05:48:12;;;;;;;3.42;2.47;;;16.10;99.90;;;;;;5021183;28;20144;-63
2023/09/28 05:50:38;;;;;;;3.08;2.78;;;16.20;99.90;;;;;;5036907;28;20041;-64
2023/09/28 05:53:04;;;;;;;4.40;2.80;;;16.20;99.90;;;;;;5032314;28;20051;-63
2023/09/28 05:55:30;;;;;;;5.53;2.90;;;16.20;99.90;;;;;;5044728;28;20083;-63
2023/09/28 05:57:55;;;;;;;4.10;2.78;;;16.20;99.90;;;;;;5029228;28;20879;-63
2023/09/28 06:00:21;;;;;;;8.20;2.85;;;16.20;99.90;;;;;;5023996;28;20597;-63
2023/09/28 06:02:47;;;;;;;6.70;3.20;;;16.30;99.90;;;;;;5040113;28;20498;-63
2023/09/28 06:05:13;;;;;;;5.00;3.53;;;16.30;99.90;;;;;;5016965;28;20468;-64
2023/09/28 06:07:39;;;;;;;3.97;2.85;;;16.30;99.90;;;;;;5027376;28;20076;-63
2023/09/28 06:10:08;;;;;;;4.15;2.58;;;16.30;99.90;;;;;;5036695;28;20331;-63
2023/09/28 06:12:34;;;;;;;4.15;2.90;;;16.30;99.90;;;;;;5026271;28;20063;-63
2023/09/28 06:15:00;;;;;;;3.08;2.50;;;16.40;99.90;;;;;;5035848;28;20582;-63
2023/09/28 06:17:26;;;;;;;3.60;2.65;;;16.40;99.90;;;;;;5046875;28;20128;-63
2023/09/28 06:19:51;;;;;;;7.05;3.13;;;16.40;99.90;;;;;;5036240;28;20472;-62
2023/09/28 06:22:17;;;;;;;3.58;2.92;;;16.40;99.90;;;;;;5028302;28;20410;-62
2023/09/28 06:24:43;;;;;;;6.85;4.40;;;16.40;99.90;;;;;;5040709;28;20476;-62
2023/09/28 06:27:09;;;;;;;3.25;2.80;;;16.40;99.90;;;;;;5026932;28;20764;-62
2023/09/28 06:29:34;;;;;;;5.68;2.80;;;16.40;99.90;;;;;;5022341;28;20073;-62
2023/09/28 06:32:01;;;;;;;6.00;3.03;;;16.40;99.90;;;;;;5031019;28;20128;-63
2023/09/28 06:34:27;;;;;;;7.25;3.38;;;16.40;99.90;;;;;;5031374;28;20045;-63
2023/09/28 06:36:53;;;;;;;6.85;3.47;;;16.40;99.90;;;;;;5030691;28;20412;-63
2023/09/28 06:39:19;;;;;;;6.05;2.53;;;16.50;99.90;;;;;;5020305;28;20087;-63
2023/09/28 06:41:45;;;;;;;5.75;3.10;;;16.50;99.90;;;;;;5025144;28;20038;-62
2023/09/28 06:44:10;;;;;;;4.43;2.80;;;16.60;99.90;;;;;;5030474;28;20030;-63
2023/09/28 06:46:37;;;;;;;6.60;2.97;;;16.70;99.90;;;;;;5014768;28;20041;-64
2023/09/28 06:49:05;;;;;;;5.28;2.83;;;16.80;99.90;;;;;;5031917;28;20407;-63
2023/09/28 06:51:32;;;;;;;4.80;2.65;;;16.90;99.90;;;;;;5037031;28;20687;-64
2023/09/28 06:53:59;;;;;;;3.47;2.60;;;17.00;99.90;;;;;;5035727;28;20054;-64
2023/09/28 06:56:26;;;;;;;4.45;2.75;;;17.00;99.90;;;;;;5028212;28;20049;-63
2023/09/28 06:58:53;;;;;;;7.53;2.90;;;17.10;99.90;;;;;;5034030;28;20433;-63
2023/09/28 07:01:19;;;;;;;7.97;2.67;;;17.20;99.90;;;;;;5031088;28;20041;-63
2023/09/28 07:03:45;;;;;;;7.53;2.60;;;17.20;99.90;;;;;;5017804;28;20060;-63
2023/09/28 07:06:12;;;;;;;17.27;3.25;;;17.30;99.90;;;;;;5038625;28;20045;-63
2023/09/28 07:08:37;;;;;;;14.70;3.22;;;17.40;99.90;;;;;;5019163;28;20064;-63
2023/09/28 07:11:04;;;;;;;9.82;2.55;;;17.40;99.90;;;;;;5016373;28;20443;-63
2023/09/28 07:13:30;;;;;;;12.75;2.40;;;17.50;99.90;;;;;;5028314;28;20126;-63
2023/09/28 07:15:58;;;;;;;16.73;3.15;;;17.60;99.90;;;;;;5018685;28;20057;-63
2023/09/28 07:18:25;;;;;;;13.93;2.30;;;17.70;99.90;;;;;;5030332;28;20045;-63
2023/09/28 07:20:51;;;;;;;14.73;3.00;;;17.80;99.90;;;;;;5034115;28;20199;-63
2023/09/28 07:23:17;;;;;;;8.13;2.60;;;17.90;99.90;;;;;;5040870;28;20056;-63
2023/09/28 07:25:44;;;;;;;13.00;2.33;;;17.90;99.90;;;;;;5026299;28;20048;-63
2023/09/28 07:28:11;;;;;;;13.90;2.90;;;18.00;99.90;;;;;;5027111;28;20466;-63
2023/09/28 07:30:38;;;;;;;14.65;2.83;;;18.20;99.90;;;;;;5039472;28;20053;-62
2023/09/28 07:33:04;;;;;;;12.23;2.63;;;18.20;99.90;;;;;;5021382;28;20064;-64
2023/09/28 07:35:30;;;;;;;14.75;2.92;;;18.30;99.90;;;;;;5042132;28;20055;-63
2023/09/28 07:37:56;;;;;;;19.45;3.28;;;18.40;99.90;;;;;;5051437;23;20049;-64
2023/09/28 07:40:24;;;;;;;14.70;2.92;;;18.50;99.90;;;;;;5041782;28;20410;-64
2023/09/28 07:42:50;;;;;;;16.45;3.70;;;18.60;99.90;;;;;;5047831;28;20051;-64
2023/09/28 07:45:18;;;;;;;11.60;2.95;;;18.70;99.90;;;;;;5048349;28;20398;-63
2023/09/28 07:47:44;;;;;;;15.40;2.97;;;18.70;99.90;;;;;;5030429;28;20502;-63
2023/09/28 07:50:14;;;;;;;17.02;2.90;;;18.80;99.90;;;;;;5046967;28;20087;-63
2023/09/28 07:52:43;;;;;;;19.08;2.58;;;18.80;99.90;;;;;;5013756;28;20049;-63
2023/09/28 07:55:10;;;;;;;13.98;3.38;;;18.90;99.90;;;;;;5047934;28;20068;-62
2023/09/28 07:57:36;;;;;;;19.85;3.25;;;19.00;99.90;;;;;;5047050;28;20441;-63
2023/09/28 08:00:06;;;;;;;12.07;3.42;;;19.10;99.90;;;;;;5051981;28;20486;-63
2023/09/28 08:02:32;;;;;;;;;;;19.20;99.90;;;;;;5049772;28;20502;-64
2023/09/28 08:04:58;;;;;;;12.68;2.85;;;19.30;99.90;;;;;;5051489;28;19924;-63
2023/09/28 08:07:24;;;;;;;13.90;2.70;;;19.30;99.90;;;;;;5050459;28;20045;-64
2023/09/28 08:09:50;;;;;;;9.68;2.63;;;19.40;99.90;;;;;;5033619;28;20040;-64
2023/09/28 08:12:16;;;;;;;11.82;2.95;;;19.40;99.90;;;;;;5026875;28;20037;-63
2023/09/28 08:14:42;;;;;;;12.32;3.05;;;19.60;99.90;;;;;;5044715;28;20045;-63
2023/09/28 08:17:09;;;;;;;13.70;3.03;;;19.60;99.90;;;;;;5051578;28;20041;-63
2023/09/28 08:19:36;;;;;;;12.05;2.88;;;19.70;99.90;;;;;;5032204;28;20071;-64
2023/09/28 08:22:03;;;;;;;8.57;2.83;;;19.90;99.90;;;;;;5051809;28;20548;-63
2023/09/28 08:24:29;;;;;;;14.02;2.72;;;19.90;99.90;;;;;;5049857;28;20444;-63
2023/09/28 08:26:55;;;;;;;12.18;2.83;;;20.00;99.90;;;;;;5051933;28;20045;-63
2023/09/28 08:29:21;;;;;;;13.80;2.28;;;20.00;99.90;;;;;;5050735;28;20132;-63
2023/09/28 08:31:46;;;;;;;17.55;3.55;;;20.10;99.90;;;;;;5050870;28;20372;-64
2023/09/28 08:34:13;;;;;;;17.58;2.80;;;20.10;99.90;;;;;;5050947;28;20041;-63
2023/09/28 08:36:39;;;;;;;16.05;3.42;;;20.10;99.90;;;;;;5049915;28;20045;-63
2023/09/28 08:39:06;;;;;;;12.40;2.30;;;20.10;99.90;;;;;;5029617;28;20466;-64
2023/09/28 08:41:46;;;;;;;14.23;3.00;;;20.20;99.90;;;;;;5049597;28;20048;-63
2023/09/28 08:44:13;;;;;;;18.60;3.08;;;20.20;99.90;;;;;;5049961;28;20532;-63
2023/09/28 08:46:40;;;;;;;12.63;2.50;;;20.20;99.90;;;;;;5049766;28;20071;-63
2023/09/28 08:49:08;;;;;;;12.13;2.33;;;20.20;99.90;;;;;;5049342;28;20059;-64
2023/09/28 08:51:36;;;;;;;18.45;4.18;;;20.30;99.90;;;;;;5049281;28;20040;-63
2023/09/28 08:54:05;;;;;;;15.55;3.28;;;20.30;97.70;;;;;;5032047;28;20044;-64
2023/09/28 08:56:41;;;;;;;12.13;2.45;;;20.30;96.70;;;;;;5016384;28;20079;-64
2023/09/28 08:59:09;;;;;;;20.75;5.00;;;20.40;96.20;;;;;;5049233;28;20048;-64
2023/09/28 09:01:35;;;;;;;10.63;2.75;;;20.50;99.90;;;;;;5049180;28;20475;-64
2023/09/28 09:04:03;;;;;;;21.35;3.08;;;20.70;99.50;;;;;;5032881;28;20045;-63
2023/09/28 09:06:30;;;;;;;16.27;3.10;;;20.60;91.00;;;;;;5050258;28;20044;-63
2023/09/28 09:09:05;;;;;;;10.68;2.20;;;20.60;81.00;;;;;;5031912;28;20075;-63
2023/09/28 09:11:33;;;;;;;8.73;2.42;;;20.50;81.40;;;;;;5048681;28;20053;-64
2023/09/28 09:13:59;;;;;;;14.98;2.92;;;20.40;90.30;;;;;;5050725;28;20041;-63
2023/09/28 09:16:28;;;;;;;15.02;2.70;;;20.40;89.90;;;;;;5047327;28;20058;-64
2023/09/28 09:18:56;;;;;;;14.85;3.13;;;20.30;81.00;;;;;;5049550;28;20120;-63
2023/09/28 09:21:22;;;;;;;11.25;3.03;;;20.30;87.70;;;;;;5032007;28;20037;-64
2023/09/28 09:24:04;;;;;;;18.73;2.55;;;20.20;76.30;;;;;;5049629;28;20048;-63
2023/09/28 09:26:47;;;;;;;15.23;3.50;;;20.20;81.30;;;;;;5050391;28;20043;-63
2023/09/28 09:29:15;;;;;;;16.00;2.72;;;20.10;81.80;;;;;;5044722;28;20148;-63
2023/09/28 09:31:42;;;;;;;19.77;2.80;;;20.10;80.30;;;;;;5050212;28;20049;-63
2023/09/28 09:34:19;;;;;;;21.58;4.03;;;20.20;84.50;;;;;;5032012;28;20048;-64
2023/09/28 09:36:56;;;;;;;20.75;3.42;;;20.30;76.30;;;;;;5031546;28;20040;-63
2023/09/28 09:39:28;;;;;;;15.40;3.03;;;20.30;74.90;;;;;;5044397;28;20404;-64
2023/09/28 09:41:55;;;;;;;8.93;2.13;;;20.40;70.00;;;;;;5048924;28;20056;-63
2023/09/28 09:44:22;;;;;;;13.65;3.08;;;20.40;66.00;;;;;;5051178;28;20063;-63
2023/09/28 09:46:55;;;;;;;13.65;3.03;;;20.30;65.40;;;;;;5048807;28;20482;-63
2023/09/28 09:49:24;;;;;;;18.90;2.85;;;20.30;70.80;;;;;;5049775;28;20445;-64
2023/09/28 09:51:50;;;;;;;15.35;3.10;;;20.20;72.20;;;;;;5049062;28;20049;-63
2023/09/28 09:54:17;;;;;;;11.98;2.45;;;20.10;76.70;;;;;;5049108;28;20654;-63
2023/09/28 09:56:49;;;;;;;18.48;3.10;;;20.00;65.00;;;;;;5047689;28;20091;-63
2023/09/28 09:59:17;;;;;;;14.65;2.90;;;19.90;68.50;;;;;;5047144;28;20064;-64
2023/09/28 10:01:48;;;;;;;10.52;3.00;;;19.80;67.30;;;;;;5031691;28;20044;-63
2023/09/28 10:04:18;;;;;;;16.92;3.35;;;19.70;68.30;;;;;;5049151;28;20045;-63
2023/09/28 10:06:51;;;;;;;23.70;3.20;;;19.60;74.50;;;;;;5048982;28;20049;-63
2023/09/28 10:09:18;;;;;;;14.63;3.65;;;19.60;79.30;;;;;;5032004;28;20048;-63
2023/09/28 10:11:47;;;;;;;17.42;3.38;;;19.60;80.30;;;;;;5048150;28;20051;-63
2023/09/28 10:14:15;;;;;;;19.73;3.47;;;19.60;80.50;;;;;;5031614;28;20513;-63
2023/09/28 10:16:42;;;;;;;14.70;3.50;;;19.60;84.30;;;;;;5041700;28;20839;-63
2023/09/28 10:19:09;;;;;;;18.23;3.78;;;19.60;84.30;;;;;;5033828;28;20045;-64
2023/09/28 10:21:39;;;;;;;18.00;3.80;;;19.60;84.30;;;;;;5038009;28;20045;-63
2023/09/28 10:24:09;;;;;;;14.55;3.67;;;19.70;86.00;;;;;;5048094;28;20091;-63
2023/09/28 10:26:35;;;;;;;20.58;3.47;;;19.80;86.50;;;;;;5047551;28;20049;-63
2023/09/28 10:29:09;;;;;;;19.73;4.68;;;19.80;83.80;;;;;;5048261;28;20208;-63
2023/09/28 10:31:42;;;;;;;18.20;3.60;;;19.80;85.80;;;;;;5047406;28;20037;-63
2023/09/28 10:34:15;;;;;;;16.52;3.60;;;19.90;86.00;;;;;;5032493;28;20052;-63
2023/09/28 10:36:41;;;;;;;15.95;3.65;;;20.00;88.80;;;;;;5037688;28;20041;-63
2023/09/28 10:39:14;;;;;;;19.17;3.30;;;20.00;86.70;;;;;;5028611;28;20449;-63
2023/09/28 10:41:51;;;;;;;15.88;3.67;;;20.10;83.20;;;;;;5045404;28;20596;-63
2023/09/28 10:44:21;;;;;;;16.00;3.15;;;20.10;80.00;;;;;;5041175;28;20128;-64
2023/09/28 10:46:48;;;;;;;11.82;2.80;;;20.20;82.00;;;;;;5028593;28;20457;-61
2023/09/28 10:49:32;;;;;;;18.42;4.53;;;20.20;83.10;;;;;;5028135;28;20053;-63
2023/09/28 10:51:58;;;;;;;12.25;2.85;;;20.30;78.40;;;;;;5045630;28;21006;-64
2023/09/28 10:54:24;;;;;;;17.13;3.65;;;20.20;70.80;;;;;;5045614;28;20029;-63
2023/09/28 10:56:51;;;;;;;12.20;3.00;;;20.20;67.00;;;;;;5046802;28;20071;-63
2023/09/28 10:59:21;;;;;;;18.73;3.17;;;20.10;66.90;;;;;;5022093;28;20052;-63
2023/09/28 11:01:48;;;;;;;13.20;2.53;;;20.00;67.80;;;;;;5028140;28;20055;-63
2023/09/28 11:04:16;;;;;;;14.68;3.17;;;20.00;71.60;;;;;;5028166;28;20441;-63
2023/09/28 11:06:43;;;;;;;11.07;3.03;;;20.00;72.00;;;;;;5046788;28;20815;-64
2023/09/28 11:09:14;;;;;;;10.98;2.70;;;20.00;70.00;;;;;;5010291;28;20451;-63
2023/09/28 11:11:43;;;;;;;14.27;2.70;;;20.00;69.80;;;;;;5045549;28;20123;-64
2023/09/28 11:14:12;;;;;;;9.13;2.28;;;20.00;62.30;;;;;;5043926;28;20494;-64
2023/09/28 11:16:49;;;;;;;15.57;3.37;;;20.00;51.50;;;;;;5052213;28;20111;-63
2023/09/28 11:19:14;;;;;;;10.55;2.22;;;20.10;55.20;;;;;;5046349;28;20295;-63
2023/09/28 11:21:42;;;;;;;15.95;4.43;;;20.10;55.60;;;;;;5027145;28;20053;-64
2023/09/28 11:24:07;;;;;;;10.15;2.60;;;20.10;54.00;;;;;;5027549;28;20096;-64
2023/09/28 11:26:35;;;;;;;18.25;3.20;;;20.10;57.60;;;;;;5046556;28;20152;-63
2023/09/28 11:29:01;;;;;;;11.77;3.05;;;20.20;58.10;;;;;;5044485;28;20049;-63
2023/09/28 11:31:27;;;;;;;17.55;3.40;;;20.10;54.00;;;;;;5045446;28;20114;-63
2023/09/28 11:33:57;;;;;;;14.98;2.80;;;20.10;55.20;;;;;;5027153;28;20487;-63
2023/09/28 11:36:22;;;;;;;14.05;3.25;;;20.10;58.90;;;;;;5028775;28;20051;-63
2023/09/28 11:38:49;;;;;;;13.60;3.15;;;20.10;60.50;;;;;;5010770;28;20762;-64
2023/09/28 11:41:15;;;;;;;7.85;2.28;;;20.10;64.70;;;;;;5043797;28;20064;-63
2023/09/28 11:43:56;;;;;;;11.88;2.78;;;20.10;62.10;;;;;;5032345;28;20111;-63
2023/09/28 11:46:32;;;;;;;13.75;2.80;;;20.10;61.70;;;;;;5051693;28;20136;-63
2023/09/28 11:49:10;;;;;;;17.67;3.05;;;20.10;63.20;;;;;;5027773;28;21079;-63
2023/09/28 11:51:37;;;;;;;10.13;2.85;;;20.10;60.00;;;;;;5045509;28;20053;-63
2023/09/28 11:54:08;;;;;;;10.88;2.55;;;20.00;59.90;;;;;;5045200;28;20059;-64
2023/09/28 11:56:34;;;;;;;13.70;3.38;;;20.00;64.60;;;;;;5046008;28;20551;-63
2023/09/28 11:59:00;;;;;;;10.35;2.55;;;20.00;61.90;;;;;;5027722;28;20049;-63
2023/09/28 12:01:26;;;;;;;12.30;3.03;;;19.90;61.10;;;;;;5011174;28;20045;-63
2023/09/28 12:03:52;;;;;;;18.85;2.90;;;19.90;67.30;;;;;;5045254;28;20128;-63
2023/09/28 12:06:18;;;;;;;8.63;1.95;;;20.00;61.80;;;;;;5045957;28;20120;-64
2023/09/28 12:08:44;;;;;;;15.90;3.08;;;20.00;52.40;;;;;;5046044;28;20387;-63
2023/09/28 12:11:10;;;;;;;10.55;2.65;;;19.90;53.60;;;;;;5045682;28;20048;-64
2023/09/28 12:13:36;;;;;;;12.75;2.80;;;19.80;49.60;;;;;;5043429;28;20110;-63
2023/09/28 12:16:03;;;;;;;10.73;2.50;;;19.80;57.80;;;;;;5051163;28;20076;-63
2023/09/28 12:18:29;;;;;;;17.05;3.17;;;19.80;63.00;;;;;;5042024;28;20712;-63
2023/09/28 12:20:55;;;;;;;11.80;3.30;;;19.80;64.20;;;;;;5027382;28;20040;-63
2023/09/28 12:23:21;;;;;;;12.43;2.88;;;19.80;63.20;;;;;;5044902;28;20051;-64
2023/09/28 12:25:47;;;;;;;16.00;2.70;;;19.80;58.00;;;;;;5026833;28;20398;-63
2023/09/28 12:28:13;;;;;;;16.05;3.22;;;19.80;56.40;;;;;;5045178;28;20057;-63
2023/09/28 12:30:39;;;;;;;20.63;3.10;;;19.80;54.10;;;;;;5045690;28;20469;-62
2023/09/28 12:33:08;;;;;;;11.40;2.83;;;19.80;58.80;;;;;;5045153;28;20033;-63
2023/09/28 12:35:34;;;;;;;18.88;3.40;;;19.90;49.40;;;;;;5026750;28;20577;-63
2023/09/28 12:38:04;;;;;;;17.13;3.47;;;19.90;49.40;;;;;;5025662;28;20513;-64
2023/09/28 12:40:32;;;;;;;12.57;2.85;;;19.90;52.50;;;;;;5045884;28;20065;-63
2023/09/28 12:43:09;;;;;;;13.40;2.60;;;19.90;52.80;;;;;;5045818;28;20053;-63
2023/09/28 12:45:35;;;;;;;14.15;2.50;;;19.80;60.40;;;;;;5047953;28;20342;-63
2023/09/28 12:48:03;;;;;;;15.80;3.15;;;19.70;54.40;;;;;;5047866;28;20080;-63
2023/09/28 12:50:30;;;;;;;14.32;3.20;;;19.70;59.20;;;;;;5048671;28;20438;-63
2023/09/28 12:52:57;;;;;;;13.98;3.00;;;19.70;63.30;;;;;;5049298;28;20090;-63
2023/09/28 12:55:26;;;;;;;17.88;3.05;;;19.60;60.60;;;;;;5047877;28;20148;-63
2023/09/28 12:57:54;;;;;;;12.03;2.70;;;19.60;59.80;;;;;;5014566;28;20446;-63
2023/09/28 13:00:22;;;;;;;12.82;3.53;;;19.50;62.00;;;;;;5030251;28;20337;-62
2023/09/28 13:02:48;;;;;;;13.45;3.35;;;19.40;59.70;;;;;;5049080;28;20049;-63
2023/09/28 13:05:17;;;;;;;12.23;3.42;;;19.40;60.60;;;;;;5029881;28;20052;-63
2023/09/28 13:07:43;;;;;;;;;;;19.40;64.30;;;;;;5049444;28;20049;-63
2023/09/28 13:10:12;;;;;;;19.35;3.33;;;19.40;67.60;;;;;;5046816;28;19924;-63
2023/09/28 13:12:38;;;;;;;12.88;2.45;;;19.40;60.90;;;;;;5043699;28;20132;-63
2023/09/28 13:15:08;;;;;;;13.27;2.40;;;19.40;53.50;;;;;;5028260;28;20045;-63
2023/09/28 13:17:34;;;;;;;20.20;2.95;;;19.40;53.90;;;;;;5039791;28;20055;-63
2023/09/28 13:20:00;;;;;;;19.40;3.47;;;19.50;57.20;;;;;;5019708;28;20703;-63
2023/09/28 13:22:25;;;;;;;10.63;2.63;;;19.50;58.40;;;;;;5047661;28;20037;-63
2023/09/28 13:24:51;;;;;;;13.85;2.75;;;19.60;61.90;;;;;;5048929;28;20044;-63
2023/09/28 13:27:18;;;;;;;20.92;3.30;;;19.60;61.30;;;;;;5029813;28;20059;-63
2023/09/28 13:29:45;;;;;;;10.65;3.20;;;19.70;61.00;;;;;;5030225;28;20059;-63
2023/09/28 13:32:13;;;;;;;13.85;2.92;;;19.70;61.30;;;;;;5028533;28;20052;-63
2023/09/28 13:34:44;;;;;;;12.53;2.27;;;19.70;57.80;;;;;;5027740;28;20167;-63
2023/09/28 13:37:11;;;;;;;20.65;3.42;;;19.70;62.80;;;;;;5044730;28;20486;-64
2023/09/28 13:39:37;;;;;;;10.18;2.67;;;19.70;63.10;;;;;;5047427;28;20424;-64
2023/09/28 13:42:04;;;;;;;11.45;2.60;;;19.80;62.20;;;;;;5045623;28;20490;-63
2023/09/28 13:44:31;;;;;;;14.23;2.70;;;19.80;61.50;;;;;;5046482;28;20362;-63
2023/09/28 13:46:57;;;;;;;14.57;2.67;;;19.80;61.90;;;;;;5045587;28;20045;-64
2023/09/28 13:49:28;;;;;;;10.82;3.08;;;19.80;55.40;;;;;;5039260;28;20525;-63
2023/09/28 13:51:58;;;;;;;12.55;2.50;;;19.80;60.40;;;;;;5046800;28;20049;-64
2023/09/28 13:54:28;;;;;;;16.17;3.03;;;19.90;61.40;;;;;;5046723;28;20551;-63
2023/09/28 13:57:05;;;;;;;14.55;2.90;;;19.90;64.70;;;;;;5046316;28;20060;-64